createdAt,value
2018-12-06T00:02:23.559Z,98370.61
2018-12-06T00:04:54.520Z,98372.96
2018-12-06T00:07:27.063Z,98373.09
2018-12-06T00:09:58.155Z,98371.63
2018-12-06T00:12:29.417Z,98371.96
2018-12-06T00:15:10.624Z,98367.21
2018-12-06T00:29:14.659Z,98348.65
2018-12-06T00:31:45.309Z,98349.95
2018-12-06T00:34:16.124Z,98355.06
2018-12-06T00:36:47.115Z,98355.34
2018-12-06T00:39:18.419Z,98346.31
2018-12-06T00:41:50.696Z,98337.98
2018-12-06T00:44:25.493Z,98320.20
2018-12-06T00:47:01.179Z,98311.10
2018-12-06T00:49:35.417Z,98291.39
2018-12-06T00:52:11.488Z,98278.98
2018-12-06T00:54:47.670Z,98280.81
2018-12-06T00:57:22.219Z,98272.96
2018-12-06T00:59:57.439Z,98273.38
2018-12-06T01:02:31.539Z,98271.45
2018-12-06T01:05:08.059Z,98267.69
2018-12-06T01:07:41.743Z,98261.28
2018-12-06T01:10:15.791Z,98244.65
2018-12-06T01:12:50.367Z,98231.78
2018-12-06T01:15:24.429Z,98211.75
2018-12-06T01:18:01.095Z,98214.03
2018-12-06T01:20:38.333Z,98212.91
2018-12-06T01:23:12.113Z,98207.08
2018-12-06T01:25:45.667Z,98213.33
2018-12-06T01:28:20.214Z,98205.39
2018-12-06T01:30:54.554Z,98212.16
2018-12-06T01:33:27.241Z,98201.63
2018-12-06T01:36:01.368Z,98208.27
2018-12-06T01:38:33.828Z,98206.59
2018-12-06T01:41:08.917Z,98199.78
2018-12-06T01:43:42.511Z,98209.37
2018-12-06T01:46:16.842Z,98219.50
2018-12-06T01:48:51.469Z,98224.38
2018-12-06T01:51:25.869Z,98222.82
2018-12-06T01:54:00.010Z,98226.45
2018-12-06T01:56:34.029Z,98223.90
2018-12-06T01:59:07.109Z,98240.94
2018-12-06T02:01:43.411Z,98255.19
2018-12-06T02:04:17.669Z,98260.57
2018-12-06T02:06:52.257Z,98255.63
2018-12-06T02:09:24.268Z,98249.72
2018-12-06T02:11:58.862Z,98249.22
2018-12-06T02:14:32.757Z,98252.77
2018-12-06T02:17:07.201Z,98257.15
2018-12-06T02:19:41.964Z,98255.09
2018-12-06T02:22:16.306Z,98255.59
2018-12-06T02:24:48.008Z,98260.91
2018-12-06T02:27:22.340Z,98265.00
2018-12-06T02:29:57.002Z,98275.27
2018-12-06T02:32:28.697Z,98286.12
2018-12-06T02:35:03.458Z,98282.75
2018-12-06T02:37:37.377Z,98276.78
2018-12-06T02:40:11.764Z,98264.69
2018-12-06T02:42:48.264Z,98263.97
2018-12-06T02:45:23.181Z,98248.28
2018-12-06T02:47:59.993Z,98231.33
2018-12-06T02:50:36.680Z,98230.74
2018-12-06T02:53:14.069Z,98227.61
2018-12-06T02:55:44.703Z,98235.14
2018-12-06T02:58:16.756Z,98240.48
2018-12-06T03:00:51.067Z,98272.26
2018-12-06T03:03:25.588Z,98278.27
2018-12-06T03:06:06.025Z,98286.61
2018-12-06T03:08:45.878Z,98293.43
2018-12-06T03:11:20.362Z,98299.70
2018-12-06T03:13:54.222Z,98298.84
2018-12-06T03:16:36.512Z,98292.58
2018-12-06T03:19:10.276Z,98289.66
2018-12-06T03:21:46.853Z,98273.46
2018-12-06T03:27:25.037Z,98249.91
2018-12-06T03:29:56.841Z,98241.71
2018-12-06T03:32:28.951Z,98245.36
2018-12-06T03:35:01.042Z,98258.67
2018-12-06T03:37:34.921Z,98261.22
2018-12-06T03:40:11.442Z,98263.42
2018-12-06T03:42:46.234Z,98254.80
2018-12-06T03:45:19.831Z,98253.14
2018-12-06T03:47:54.301Z,98259.87
2018-12-06T03:50:30.893Z,98259.73
2018-12-06T03:53:05.934Z,98256.90
2018-12-06T03:55:39.989Z,98254.30
2018-12-06T03:58:16.632Z,98255.29
2018-12-06T04:00:50.410Z,98249.06
2018-12-06T04:03:25.220Z,98242.70
2018-12-06T04:05:59.439Z,98237.23
2018-12-06T04:11:40.437Z,98239.39
2018-12-06T04:14:15.593Z,98235.52
2018-12-06T04:16:50.066Z,98232.92
2018-12-06T04:19:24.033Z,98238.34
2018-12-06T04:21:59.144Z,98239.02
2018-12-06T04:24:33.972Z,98239.87
2018-12-06T04:27:07.807Z,98240.41
2018-12-06T04:29:40.188Z,98246.73
2018-12-06T04:32:17.646Z,98246.60
2018-12-06T04:34:52.108Z,98250.95
2018-12-06T04:37:24.545Z,98250.50
2018-12-06T04:39:59.310Z,98238.14
2018-12-06T04:45:07.705Z,98236.25
2018-12-06T04:50:13.241Z,98235.61
2018-12-06T04:52:47.274Z,98231.84
2018-12-06T04:55:22.009Z,98237.64
2018-12-06T04:57:53.965Z,98231.45
2018-12-06T05:00:31.087Z,98236.11
2018-12-06T05:03:05.511Z,98227.82
2018-12-06T05:05:40.089Z,98227.38
2018-12-06T05:08:14.128Z,98224.69
2018-12-06T05:10:48.917Z,98226.10
2018-12-06T05:13:23.665Z,98230.06
2018-12-06T05:15:59.930Z,98232.07
2018-12-06T05:18:36.621Z,98237.67
2018-12-06T05:21:12.594Z,98244.40
2018-12-06T05:23:48.632Z,98232.19
2018-12-06T05:26:22.734Z,98236.99
2018-12-06T05:28:57.481Z,98239.37
2018-12-06T05:31:28.460Z,98237.45
2018-12-06T05:33:59.340Z,98235.86
2018-12-06T05:36:30.342Z,98230.74
2018-12-06T05:39:03.400Z,98234.64
2018-12-06T05:41:34.325Z,98235.23
2018-12-06T05:44:05.542Z,98231.48
2018-12-06T05:46:38.596Z,98238.74
2018-12-06T05:49:10.280Z,98235.95
2018-12-06T05:51:41.225Z,98230.09
2018-12-06T05:54:12.137Z,98235.30
2018-12-06T05:56:43.379Z,98239.20
2018-12-06T05:59:14.380Z,98241.03
2018-12-06T06:01:45.904Z,98245.47
2018-12-06T06:04:22.201Z,98254.58
2018-12-06T06:06:54.215Z,98251.44
2018-12-06T06:09:26.412Z,98257.41
2018-12-06T06:12:00.822Z,98255.80
2018-12-06T06:14:34.937Z,98256.45
2018-12-06T06:17:07.532Z,98258.70
2018-12-06T06:19:43.697Z,98257.58
2018-12-06T06:22:21.636Z,98265.30
2018-12-06T06:24:56.161Z,98272.11
2018-12-06T06:27:28.266Z,98268.02
2018-12-06T06:30:04.548Z,98281.48
2018-12-06T06:32:42.467Z,98288.34
2018-12-06T06:35:16.997Z,98284.84
2018-12-06T06:37:51.140Z,98289.14
2018-12-06T06:40:25.772Z,98294.20
2018-12-06T06:42:57.513Z,98300.17
2018-12-06T06:45:31.772Z,98299.72
2018-12-06T06:48:04.549Z,98299.78
2018-12-06T06:50:36.124Z,98312.65
2018-12-06T06:53:07.545Z,98314.80
2018-12-06T06:55:39.723Z,98311.66
2018-12-06T06:58:10.704Z,98320.62
2018-12-06T07:00:45.329Z,98323.09
2018-12-06T07:03:16.223Z,98326.01
2018-12-06T07:05:47.152Z,98325.11
2018-12-06T07:08:19.288Z,98340.05
2018-12-06T07:10:50.157Z,98343.03
2018-12-06T07:13:21.073Z,98338.75
2018-12-06T07:15:52.099Z,98351.31
2018-12-06T07:18:22.991Z,98351.40
2018-12-06T07:20:55.564Z,98365.84
2018-12-06T07:23:26.465Z,98367.84
2018-12-06T07:25:57.264Z,98373.48
2018-12-06T07:28:28.085Z,98379.78
2018-12-06T07:30:59.096Z,98386.25
2018-12-06T07:33:30.351Z,98386.47
2018-12-06T07:36:01.177Z,98397.44
2018-12-06T07:38:32.347Z,98392.39
2018-12-06T07:41:03.479Z,98391.39
2018-12-06T07:43:34.308Z,98396.41
2018-12-06T07:46:11.623Z,98395.31
2018-12-06T07:48:42.741Z,98404.09
2018-12-06T07:51:13.576Z,98405.61
2018-12-06T07:53:44.382Z,98414.83
2018-12-06T07:56:15.523Z,98423.27
2018-12-06T07:58:46.360Z,98406.36
2018-12-06T08:01:17.137Z,98430.33
2018-12-06T08:03:47.985Z,98437.55
2018-12-06T08:06:20.119Z,98445.69
2018-12-06T08:08:50.954Z,98446.33
2018-12-06T08:11:23.434Z,98451.84
2018-12-06T08:13:54.669Z,98451.79
2018-12-06T08:16:26.511Z,98452.00
2018-12-06T08:18:57.303Z,98450.19
2018-12-06T08:21:29.442Z,98450.03
2018-12-06T08:24:00.228Z,98452.16
2018-12-06T08:26:31.169Z,98453.09
2018-12-06T08:29:06.242Z,98457.07
2018-12-06T08:31:37.243Z,98462.37
2018-12-06T08:34:15.510Z,98464.35
2018-12-06T08:36:48.083Z,98468.75
2018-12-06T08:39:21.155Z,98477.09
2018-12-06T08:41:52.522Z,98473.97
2018-12-06T08:44:25.244Z,98473.42
2018-12-06T08:46:56.353Z,98479.40
2018-12-06T08:49:27.481Z,98483.62
2018-12-06T08:51:58.238Z,98470.81
2018-12-06T08:54:29.071Z,98477.43
2018-12-06T08:57:12.498Z,98480.49
2018-12-06T08:59:43.256Z,98461.53
2018-12-06T09:02:15.409Z,98474.18
2018-12-06T09:04:46.176Z,98472.87
2018-12-06T09:07:17.056Z,98471.33
2018-12-06T09:09:51.573Z,98481.14
2018-12-06T09:12:22.415Z,98486.59
2018-12-06T09:14:53.134Z,98483.16
2018-12-06T09:17:25.220Z,98479.91
2018-12-06T09:19:56.228Z,98481.88
2018-12-06T09:22:27.002Z,98489.55
2018-12-06T09:24:57.816Z,98490.77
2018-12-06T09:27:29.275Z,98464.07
2018-12-06T09:30:00.150Z,98507.49
2018-12-06T09:32:31.054Z,98508.34
2018-12-06T09:35:03.011Z,98513.17
2018-12-06T09:37:34.060Z,98512.09
2018-12-06T09:40:04.990Z,98513.93
2018-12-06T09:42:38.080Z,98518.02
2018-12-06T09:45:09.845Z,98522.87
2018-12-06T09:47:40.644Z,98529.02
2018-12-06T09:50:11.522Z,98516.88
2018-12-06T09:52:42.360Z,98518.77
2018-12-06T09:55:13.343Z,98523.37
2018-12-06T09:57:44.325Z,98535.59
2018-12-06T10:00:17.613Z,98550.73
2018-12-06T10:02:48.572Z,98545.98
2018-12-06T10:11:22.928Z,98522.97
2018-12-06T10:14:03.951Z,98517.95
2018-12-06T10:17:08.323Z,98512.90
2018-12-06T10:19:53.890Z,98503.89
2018-12-06T10:22:44.555Z,98504.73
2018-12-06T10:25:32.785Z,98503.72
2018-12-06T10:28:27.134Z,98500.75
2018-12-06T10:31:25.365Z,98501.98
2018-12-06T10:34:07.644Z,98500.53
2018-12-06T10:36:47.685Z,98501.45
2018-12-06T10:39:31.928Z,98509.59
2018-12-06T10:42:07.197Z,98511.95
2018-12-06T10:44:44.557Z,98508.23
2018-12-06T10:47:30.358Z,98505.30
2018-12-06T10:50:08.252Z,98506.44
2018-12-06T10:52:44.459Z,98499.40
2018-12-06T10:55:16.818Z,98497.81
2018-12-06T10:57:50.905Z,98500.06
2018-12-06T11:00:28.139Z,98498.32
2018-12-06T11:03:03.814Z,98494.79
2018-12-06T11:05:38.875Z,98491.59
2018-12-06T11:08:12.873Z,98488.61
2018-12-06T11:10:45.581Z,98490.09
2018-12-06T11:13:29.060Z,98496.95
2018-12-06T11:16:07.949Z,98498.53
2018-12-06T11:21:41.708Z,98503.41
2018-12-06T11:24:26.564Z,98509.39
2018-12-06T11:27:01.230Z,98502.77
2018-12-06T11:35:40.960Z,98518.25
2018-12-06T11:38:23.628Z,98522.61
2018-12-06T11:41:01.222Z,98522.63
2018-12-06T11:43:32.599Z,98525.05
2018-12-06T11:46:03.534Z,98531.50
2018-12-06T11:48:34.402Z,98534.52
2018-12-06T11:51:05.902Z,98537.24
2018-12-06T11:53:40.575Z,98534.23
2018-12-06T11:56:18.301Z,98543.63
2018-12-06T11:58:52.674Z,98534.81
2018-12-06T12:01:37.760Z,98539.88
2018-12-06T12:04:17.802Z,98538.09
2018-12-06T12:09:58.318Z,98540.07
2018-12-06T12:15:52.044Z,98539.14
2018-12-06T12:21:45.302Z,98537.36
2018-12-06T12:24:22.245Z,98529.03
2018-12-06T12:27:02.953Z,98519.45
2018-12-06T12:29:40.120Z,98515.52
2018-12-06T12:32:14.660Z,98511.78
2018-12-06T12:34:48.243Z,98514.78
2018-12-06T12:37:26.535Z,98529.98
2018-12-06T12:40:21.944Z,98518.25
2018-12-06T12:43:01.350Z,98521.08
2018-12-06T12:45:51.015Z,98518.52
2018-12-06T12:48:36.369Z,98521.81
2018-12-06T12:51:13.931Z,98521.50
2018-12-06T12:54:15.433Z,98532.77
2018-12-06T12:56:50.776Z,98522.08
2018-12-06T12:59:31.538Z,98519.06
2018-12-06T13:02:08.170Z,98517.95
2018-12-06T13:04:40.140Z,98519.80
2018-12-06T13:07:17.954Z,98508.77
2018-12-06T13:09:49.144Z,98501.82
2018-12-06T13:12:23.874Z,98507.83
2018-12-06T13:14:59.118Z,98503.89
2018-12-06T13:17:30.057Z,98501.00
2018-12-06T13:20:02.321Z,98507.99
2018-12-06T13:22:40.021Z,98504.64
2018-12-06T13:25:14.742Z,98498.08
2018-12-06T13:27:50.666Z,98492.86
2018-12-06T13:33:36.717Z,98493.52
2018-12-06T13:36:13.664Z,98484.06
2018-12-06T13:38:47.905Z,98491.28
2018-12-06T13:41:22.450Z,98499.08
2018-12-06T13:43:54.279Z,98499.54
2018-12-06T13:46:25.320Z,98502.44
2018-12-06T13:48:56.333Z,98507.87
2018-12-06T13:51:31.796Z,98507.14
2018-12-06T13:54:08.146Z,98497.03
2018-12-06T13:56:46.218Z,98498.34
2018-12-06T13:59:21.393Z,98491.55
2018-12-06T14:01:55.978Z,98486.16
2018-12-06T14:04:26.949Z,98488.58
2018-12-06T14:06:58.160Z,98489.81
2018-12-06T14:09:32.937Z,98489.55
2018-12-06T14:15:14.166Z,98505.63
2018-12-06T14:17:54.197Z,98516.23
2018-12-06T14:20:25.118Z,98521.78
2018-12-06T14:22:56.801Z,98523.17
2018-12-06T14:25:27.537Z,98523.75
2018-12-06T14:27:58.480Z,98526.53
2018-12-06T14:30:29.244Z,98527.41
2018-12-06T14:33:00.229Z,98535.09
2018-12-06T14:35:31.229Z,98531.16
2018-12-06T14:38:03.048Z,98528.43
2018-12-06T14:40:33.837Z,98529.08
2018-12-06T14:43:04.689Z,98533.41
2018-12-06T14:45:40.370Z,98531.59
2018-12-06T14:48:15.910Z,98537.53
2018-12-06T14:50:52.624Z,98545.77
2018-12-06T14:53:25.713Z,98548.55
2018-12-06T14:55:59.592Z,98540.20
2018-12-06T14:58:33.906Z,98550.23
2018-12-06T15:01:06.665Z,98548.05
2018-12-06T15:03:42.748Z,98559.11
2018-12-06T15:06:14.737Z,98561.25
2018-12-06T15:08:49.027Z,98565.23
2018-12-06T15:11:20.998Z,98567.00
2018-12-06T15:13:51.751Z,98571.08
2018-12-06T15:16:22.665Z,98574.61
2018-12-06T15:18:53.639Z,98577.31
2018-12-06T15:21:26.965Z,98579.30
2018-12-06T15:23:57.934Z,98575.23
2018-12-06T15:26:28.769Z,98569.75
2018-12-06T15:28:59.538Z,98573.31
2018-12-06T15:31:32.611Z,98570.77
2018-12-06T15:34:03.467Z,98566.10
2018-12-06T15:36:34.436Z,98563.60
2018-12-06T15:39:09.013Z,98559.86
2018-12-06T15:41:39.812Z,98573.39
2018-12-06T15:44:10.726Z,98582.59
2018-12-06T15:46:41.618Z,98585.03
2018-12-06T15:49:12.444Z,98579.59
2018-12-06T15:51:46.474Z,98586.59
2018-12-06T15:54:20.839Z,98584.27
2018-12-06T15:56:54.973Z,98588.20
2018-12-06T15:59:30.616Z,98584.67
2018-12-06T16:02:04.467Z,98581.94
2018-12-06T16:04:38.918Z,98589.63
2018-12-06T16:07:15.267Z,98586.09
2018-12-06T16:09:49.088Z,98586.49
2018-12-06T16:12:26.542Z,98587.15
2018-12-06T16:15:01.095Z,98593.46
2018-12-06T16:17:37.429Z,98592.16
2018-12-06T16:20:11.591Z,98588.55
2018-12-06T16:22:46.373Z,98591.21
2018-12-06T16:25:19.328Z,98583.92
2018-12-06T16:27:50.282Z,98587.55
2018-12-06T16:30:21.131Z,98587.64
2018-12-06T16:32:55.578Z,98583.47
2018-12-06T16:35:30.499Z,98580.39
2018-12-06T16:38:04.410Z,98581.31
2018-12-06T16:40:35.565Z,98561.33
2018-12-06T16:43:10.213Z,98560.83
2018-12-06T16:45:41.991Z,98559.69
2018-12-06T16:48:13.216Z,98565.83
2018-12-06T16:50:44.056Z,98574.07
2018-12-06T16:53:14.812Z,98584.22
2018-12-06T16:55:45.769Z,98578.82
2018-12-06T16:58:16.650Z,98589.13
2018-12-06T17:00:57.045Z,98590.13
2018-12-06T17:03:28.317Z,98592.84
2018-12-06T17:06:02.638Z,98587.91
2018-12-06T17:08:34.545Z,98593.88
2018-12-06T17:11:11.045Z,98603.23
2018-12-06T17:13:48.078Z,98602.88
2018-12-06T17:16:22.531Z,98604.44
2018-12-06T17:18:56.449Z,98608.11
2018-12-06T17:21:30.631Z,98617.50
2018-12-06T17:24:10.524Z,98614.34
2018-12-06T17:26:47.557Z,98620.63
2018-12-06T17:29:22.347Z,98618.87
2018-12-06T17:31:56.390Z,98614.03
2018-12-06T17:34:29.006Z,98623.73
2018-12-06T17:37:05.147Z,98625.55
2018-12-06T17:39:36.389Z,98624.23
2018-12-06T17:42:09.917Z,98625.24
2018-12-06T17:44:43.411Z,98631.56
2018-12-06T17:47:35.026Z,98631.02
2018-12-06T17:53:21.637Z,98628.31
2018-12-06T17:55:56.813Z,98627.49
2018-12-06T17:58:32.410Z,98628.01
2018-12-06T18:01:07.376Z,98622.08
2018-12-06T18:03:45.116Z,98625.34
2018-12-06T18:06:25.337Z,98631.02
2018-12-06T18:09:08.521Z,98631.72
2018-12-06T18:11:41.324Z,98629.61
2018-12-06T18:14:15.862Z,98626.79
2018-12-06T18:16:50.728Z,98628.98
2018-12-06T18:19:26.638Z,98629.53
2018-12-06T18:22:03.203Z,98623.24
2018-12-06T18:24:37.923Z,98625.06
2018-12-06T18:27:12.677Z,98631.39
2018-12-06T18:29:45.634Z,98627.63
2018-12-06T18:32:17.860Z,98625.69
2018-12-06T18:35:09.638Z,98628.80
2018-12-06T18:37:43.884Z,98623.78
2018-12-06T18:40:16.569Z,98625.34
2018-12-06T18:42:54.749Z,98633.38
2018-12-06T18:45:30.268Z,98630.56
2018-12-06T18:48:04.942Z,98626.55
2018-12-06T18:53:36.089Z,98622.78
2018-12-06T18:56:13.184Z,98629.39
2018-12-06T19:01:52.165Z,98626.45
2018-12-06T19:07:46.157Z,98622.02
2018-12-06T19:23:04.000Z,98608.81
2018-12-06T19:25:55.565Z,98612.18
2018-12-06T19:32:10.430Z,98613.88
2018-12-06T19:34:50.214Z,98603.13
2018-12-06T19:40:34.607Z,98595.05
2018-12-06T19:49:20.113Z,98596.81
2018-12-06T19:54:57.350Z,98586.69
2018-12-06T19:57:36.254Z,98584.27
2018-12-06T20:00:22.169Z,98579.66
2018-12-06T20:02:58.340Z,98577.86
2018-12-06T20:14:34.413Z,98581.01
2018-12-06T20:17:13.573Z,98585.76
2018-12-06T20:19:54.585Z,98586.13
2018-12-06T20:22:33.277Z,98589.22
2018-12-06T20:28:11.966Z,98584.75
2018-12-06T20:30:46.779Z,98580.07
2018-12-06T20:33:38.296Z,98583.55
2018-12-06T20:38:01.853Z,98581.98
2018-12-06T20:53:02.097Z,98594.73
2018-12-06T20:58:39.179Z,98589.64
2018-12-06T21:01:16.080Z,98586.23
2018-12-06T21:03:56.418Z,98588.05
2018-12-06T21:06:36.476Z,98585.89
2018-12-06T21:09:25.068Z,98579.93
2018-12-06T21:12:10.917Z,98582.89
2018-12-06T21:26:54.480Z,98558.97
2018-12-06T21:29:37.678Z,98561.54
2018-12-06T21:32:15.671Z,98561.77
2018-12-06T21:34:46.567Z,98566.61
2018-12-06T21:37:18.171Z,98559.09
2018-12-06T21:39:50.956Z,98557.62
2018-12-06T21:42:22.181Z,98559.28
2018-12-06T21:44:53.576Z,98562.45
2018-12-06T21:47:27.017Z,98561.88
2018-12-06T21:50:03.248Z,98563.31
2018-12-06T21:55:14.400Z,98568.14
2018-12-06T21:57:45.247Z,98566.72
2018-12-06T22:00:16.397Z,98569.63
2018-12-06T22:02:59.144Z,98567.23
2018-12-06T22:05:34.818Z,98566.95
2018-12-06T22:11:06.038Z,98560.03
2018-12-06T22:13:41.564Z,98557.83
2018-12-06T22:16:18.609Z,98552.14
2018-12-06T22:18:53.492Z,98554.75
2018-12-06T22:21:28.485Z,98545.98
2018-12-06T22:27:06.229Z,98543.58
2018-12-06T22:29:47.012Z,98533.69
2018-12-06T22:32:27.120Z,98534.44
2018-12-06T22:35:08.565Z,98533.30
2018-12-06T22:37:43.205Z,98530.97
2018-12-06T22:40:15.608Z,98528.98
2018-12-06T22:42:52.362Z,98534.05
2018-12-06T22:45:58.409Z,98536.31
2018-12-06T22:48:31.253Z,98535.00
2018-12-06T22:51:05.785Z,98537.34
2018-12-06T22:53:43.398Z,98540.59
2018-12-06T22:56:14.636Z,98539.28
2018-12-06T22:58:45.411Z,98539.88
2018-12-06T23:01:18.810Z,98534.94
2018-12-06T23:03:54.368Z,98532.20
2018-12-06T23:06:29.354Z,98531.00
2018-12-06T23:09:08.034Z,98529.23
2018-12-06T23:11:40.285Z,98521.37
2018-12-06T23:14:11.535Z,98527.26
2018-12-06T23:16:43.667Z,98522.30
2018-12-06T23:19:14.548Z,98523.98
2018-12-06T23:21:47.266Z,98516.98
2018-12-06T23:24:21.054Z,98518.94
2018-12-06T23:26:58.642Z,98514.17
2018-12-06T23:29:35.366Z,98506.20
2018-12-06T23:32:12.852Z,98506.59
2018-12-06T23:34:49.500Z,98504.23
2018-12-06T23:37:21.024Z,98506.59
2018-12-06T23:39:52.497Z,98498.72
2018-12-06T23:42:26.590Z,98501.44
2018-12-06T23:44:58.446Z,98497.77
2018-12-06T23:47:33.263Z,98491.69
2018-12-06T23:50:05.522Z,98491.52
2018-12-06T23:52:41.462Z,98486.92
2018-12-06T23:55:15.822Z,98490.29
2018-12-06T23:57:48.401Z,98485.97
